Flight Track Log - Related Links

Times and Time Zones

All times are in EDT time to prevent confusion due to time zone crossing. See the DAL3698 flight status page for this flight to view local times or setup timezone preferences in your user account.

Time Position Orientation Groundspeed Altitude Reporting Facility
EDT Latitude Longitude Course Direction KTS MPH feet Rate Location/Type
Fri 08:27:23 AM 40.7333 -73.8333 246° West 183 211 2,200  Level New York TRACON
Fri 08:28:17 AM 40.7500 -73.7833 66° East 222 255 4,200 2,105 Climbing New York TRACON
Fri 08:29:17 AM 40.8167 -73.7333 30° Northeast 271 312 6,200 2,238 Climbing New York TRACON
Fri 08:30:23 AM 40.8500 -73.8167 298° West 281 323 8,900 1,333 Climbing New York TRACON
Fri 08:31:23 AM 40.8667 -73.9333 281° West 283 326 9,000 211 Climbing New York TRACON
Fri 08:32:00 AM 40.5334 -74.5665 246° West  Level FlightAware Approximate
Fri 08:32:17 AM 40.8667 -74.0167 270° West 286 329 9,300  Level New York TRACON
Fri 08:33:23 AM 40.8667 -74.1333 270° West 286 329 12,300 2,524 Climbing New York TRACON
Fri 08:34:23 AM 40.8500 -74.2333 258° West 303 349 14,600 1,273 Climbing New York TRACON
Fri 08:36:08 AM 40.7450 -74.4167 233° Southwest 387 445 15,800 976 Climbing New York Center
Fri 08:37:09 AM 40.6786 -74.5336 233° Southwest 402 463 17,300 1,361 Climbing New York Center
Fri 08:38:07 AM 40.6061 -74.6553 232° Southwest 419 482 18,500 1,261 Climbing New York Center
Fri 08:39:08 AM 40.5331 -74.7794 232° Southwest 419 482 19,800 1,250 Climbing New York Center
Fri 08:40:07 AM 40.4600 -74.9036 232° Southwest 426 490 21,000 1,100 Climbing New York Center
Fri 08:41:08 AM 40.3847 -75.0269 231° Southwest 433 498 22,000 1,180 Climbing New York Center
Fri 08:42:09 AM 40.2992 -75.1442 226° Southwest 445 512 23,400 1,279 Climbing New York Center
Fri 08:43:10 AM 40.2156 -75.2614 227° Southwest 445 512 24,600 1,109 Climbing New York Center
Fri 08:44:08 AM 40.1294 -75.3861 228° Southwest 457 526 25,600 1,008 Climbing New York Center
Fri 08:45:09 AM 40.0436 -75.5050 227° Southwest 457 526 26,600 984 Climbing New York Center
Fri 08:46:10 AM 39.9619 -75.6133 225° Southwest 457 526 27,600 1,008 Climbing New York Center
Fri 08:47:08 AM 39.8794 -75.7403 230° Southwest 462 532 28,600 1,008 Climbing New York Center
Fri 08:48:09 AM 39.7947 -75.8719 230° Southwest 468 539 29,600 992 Climbing New York Center
Fri 08:49:09 AM 39.7161 -76.0014 232° Southwest 468 539 30,600 1,008 Climbing New York Center
Fri 08:50:08 AM 39.6331 -76.1300 230° Southwest 468 539 31,600 1,000 Climbing New York Center
Fri 08:51:09 AM 39.5481 -76.2581 229° Southwest 473 544 32,600 1,008 Climbing New York Center
Fri 08:52:19 AM 39.4517 -76.4050 230° Southwest 458 527 33,800 433 Climbing Washington Center
Fri 08:54:23 AM 39.2881 -76.6683 231° Southwest 476 548 34,000 65 Climbing Washington Center
Fri 08:55:24 AM 39.2025 -76.7942 229° Southwest 465 535 34,000  Level Washington Center
Fri 08:56:28 AM 39.1186 -76.9253 231° Southwest 469 540 34,000  Level Washington Center
Fri 08:57:28 AM 39.0100 -77.0767 227° Southwest 477 549 34,000  Level Washington Center
Fri 08:58:32 AM 38.9036 -77.1900 220° Southwest 492 566 34,000  Level Washington Center
Fri 08:59:34 AM 38.7992 -77.3056 221° Southwest 488 562 34,000  Level Washington Center
Fri 09:00:34 AM 38.6944 -77.4189 220° Southwest 487 560 34,000  Level Washington Center
Fri 09:01:38 AM 38.5906 -77.5319 220° Southwest 486 559 34,000  Level Washington Center
Fri 09:02:39 AM 38.4881 -77.6431 220° Southwest 485 558 34,000  Level Washington Center
Fri 09:03:43 AM 38.3872 -77.7542 221° Southwest 481 554 34,000  Level Washington Center
Fri 09:04:44 AM 38.2858 -77.8608 220° Southwest 477 549 34,000  Level Washington Center
Fri 09:05:45 AM 38.1650 -77.9892 220° Southwest 473 544 34,000  Level Washington Center
Fri 09:06:48 AM 38.0664 -78.0983 221° Southwest 471 542 34,000  Level Washington Center
Fri 09:07:52 AM 37.9672 -78.1986 219° Southwest 469 540 34,000  Level Washington Center
Fri 09:08:52 AM 37.8614 -78.2992 217° Southwest 471 542 34,000  Level Washington Center
Fri 09:09:56 AM 37.7556 -78.3994 217° Southwest 473 544 34,000  Level Washington Center
Fri 09:10:57 AM 37.6278 -78.5206 217° Southwest 474 545 34,000  Level Washington Center
Fri 09:12:00 AM 37.5203 -78.6217 217° Southwest 476 548 34,000  Level Washington Center
Fri 09:13:01 AM 37.4122 -78.7231 217° Southwest 478 550 34,000  Level Washington Center
Fri 09:14:03 AM 37.3050 -78.8219 216° Southwest 478 550 34,000  Level Washington Center
Fri 09:15:06 AM 37.2011 -78.9200 217° Southwest 470 541 34,000  Level Washington Center
Fri 09:16:07 AM 37.0967 -79.0175 217° Southwest 469 540 34,000  Level Washington Center
Fri 09:17:09 AM 36.9928 -79.1136 216° Southwest 463 533 34,000  Level Washington Center
Fri 09:18:13 AM 36.8689 -79.2283 217° Southwest 462 532 34,000  Level Washington Center
Fri 09:19:14 AM 36.7650 -79.3242 216° Southwest 462 532 34,000  Level Washington Center
Fri 09:20:15 AM 36.6597 -79.4211 216° Southwest 467 537 34,000  Level Washington Center
Fri 09:21:19 AM 36.5550 -79.5183 217° Southwest 468 539 34,000  Level Washington Center
Fri 09:22:20 AM 36.4492 -79.6150 216° Southwest 469 540 34,000  Level Washington Center
Fri 09:23:24 AM 36.3350 -79.7167 216° Southwest 469 540 34,000  Level Washington Center
Fri 09:24:19 AM 36.2336 -79.8069 216° Southwest 476 548 34,000  Level Atlanta Center
Fri 09:25:19 AM 36.1283 -79.9000 216° Southwest 476 548 34,000  Level Atlanta Center
Fri 09:26:19 AM 36.0186 -79.9903 214° Southwest 476 548 34,000  Level Atlanta Center
Fri 09:27:19 AM 35.8922 -80.0786 210° Southwest 476 548 34,000  Level Atlanta Center
Fri 09:28:19 AM 35.7742 -80.1100 192° South 472 543 34,000  Level Atlanta Center
Fri 09:29:19 AM 35.6408 -80.1803 203° Southwest 477 549 34,000  Level Atlanta Center
Fri 09:30:19 AM 35.5178 -80.2422 202° Southwest 477 549 34,000  Level Atlanta Center
Fri 09:31:19 AM 35.4086 -80.2956 202° Southwest 477 549 34,000  Level Atlanta Center
Fri 09:33:05 AM 35.1886 -80.4036 202° Southwest 493 567 34,000  Level Jacksonville Center
Fri 09:33:46 AM 35.1247 -80.4361 203° Southwest 476 548 34,000  Level Washington Center
Fri 09:34:47 AM 34.9786 -80.5094 202° Southwest 474 545 34,000  Level Washington Center
Fri 09:36:05 AM 34.8272 -80.5861 203° Southwest 477 549 34,000  Level Jacksonville Center
Fri 09:37:05 AM 34.6989 -80.6503 202° Southwest 471 542 34,000  Level Jacksonville Center
Fri 09:38:05 AM 34.5853 -80.7061 202° Southwest 471 542 34,000  Level Jacksonville Center
Fri 09:39:05 AM 34.4631 -80.7647 202° Southwest 481 554 34,000  Level Jacksonville Center
Fri 09:40:05 AM 34.3431 -80.8253 203° Southwest 476 548 34,000  Level Jacksonville Center
Fri 09:41:05 AM 34.2211 -80.8836 202° Southwest 461 531 34,000  Level Jacksonville Center
Fri 09:42:05 AM 34.0989 -80.9414 201° Southwest 455 524 34,000  Level Jacksonville Center
Fri 09:43:05 AM 33.9808 -80.9967 201° Southwest 455 524 34,000  Level Jacksonville Center
Fri 09:44:05 AM 33.8708 -81.0467 201° Southwest 462 532 34,000  Level Jacksonville Center
Fri 09:45:05 AM 33.7383 -81.1144 203° Southwest 467 537 34,000  Level Jacksonville Center
Fri 09:46:05 AM 33.6203 -81.1742 203° Southwest 472 543 34,000  Level Jacksonville Center
Fri 09:47:05 AM 33.5000 -81.2336 202° Southwest 472 543 34,000  Level Jacksonville Center
Fri 09:48:05 AM 33.3756 -81.2933 202° Southwest 477 549 34,000  Level Jacksonville Center
Fri 09:49:05 AM 33.2553 -81.3525 202° Southwest 477 549 34,000  Level Jacksonville Center
Fri 09:50:05 AM 33.1350 -81.4142 203° Southwest 472 543 34,000  Level Jacksonville Center
Fri 09:51:05 AM 33.0144 -81.4706 201° Southwest 472 543 34,000  Level Jacksonville Center
Fri 09:52:05 AM 32.9022 -81.5244 202° Southwest 477 549 34,000  Level Jacksonville Center
Fri 09:53:05 AM 32.7839 -81.5831 203° Southwest 472 543 34,000  Level Jacksonville Center
Fri 09:54:05 AM 32.6633 -81.6389 201° Southwest 472 543 34,000  Level Jacksonville Center
Fri 09:55:05 AM 32.5306 -81.7050 203° Southwest 477 549 34,000  Level Jacksonville Center
Fri 09:56:05 AM 32.4225 -81.7581 203° Southwest 471 542 34,000  Level Jacksonville Center
Fri 09:57:05 AM 32.2872 -81.8211 202° Southwest 477 549 34,000  Level Jacksonville Center
Fri 09:58:05 AM 32.1647 -81.8814 203° Southwest 477 549 34,000  Level Jacksonville Center
Fri 09:59:05 AM 32.0564 -81.9317 201° Southwest 472 543 34,000  Level Jacksonville Center
Fri 10:00:05 AM 31.9169 -81.9747 195° South 466 536 34,000  Level Jacksonville Center
Fri 10:01:05 AM 31.8000 -81.9856 185° South 471 542 34,000  Level Jacksonville Center
Fri 10:02:05 AM 31.6539 -81.9994 185° South 477 549 34,000  Level Jacksonville Center
Fri 10:03:05 AM 31.5247 -82.0128 185° South 477 549 34,000  Level Jacksonville Center
Fri 10:04:05 AM 31.3931 -82.0261 185° South 485 558 34,000  Level Jacksonville Center
Fri 10:05:05 AM 31.2617 -82.0369 184° South 477 549 34,000 -200 Level Jacksonville Center
Fri 10:06:05 AM 31.1322 -82.0456 183° South 477 549 33,600 -700 Descending Jacksonville Center
Fri 10:07:05 AM 31.0008 -82.0419 179° South 477 549 32,600 -1,000 Descending Jacksonville Center
Fri 10:08:05 AM 30.8692 -82.0358 178° South 477 549 31,600 -1,000 Descending Jacksonville Center
Fri 10:09:05 AM 30.7397 -82.0297 178° South 477 549 30,600 -800 Descending Jacksonville Center
Fri 10:10:05 AM 30.6081 -82.0236 178° South 477 549 30,000 -300 Descending Jacksonville Center
Fri 10:11:05 AM 30.4744 -82.0200 179° South 477 549 30,000  Level Jacksonville Center
Fri 10:12:05 AM 30.3367 -82.0189 180° South 477 549 30,000  Level Jacksonville Center
Fri 10:13:05 AM 30.2028 -82.0081 176° South 477 549 30,000  Level Jacksonville Center
Fri 10:14:05 AM 30.0817 -82.0044 179° South 477 549 30,000  Level Jacksonville Center
Fri 10:15:05 AM 29.9503 -81.9983 178° South 477 549 30,000  Level Jacksonville Center
Fri 10:16:05 AM 29.8167 -81.9900 177° South 477 549 30,000 -250 Level Jacksonville Center
Fri 10:17:05 AM 29.6869 -81.9864 179° South 477 549 29,500 -500 Descending Jacksonville Center
Fri 10:18:05 AM 29.5575 -81.9831 179° South 477 549 29,000 -250 Descending Jacksonville Center
Fri 10:19:05 AM 29.4261 -81.9769 178° South 472 543 29,000  Level Jacksonville Center
Fri 10:20:05 AM 29.3006 -81.9592 173° South 472 543 29,000 -142 Level Jacksonville Center
Fri 10:22:36 AM 28.9697 -81.8919 170° South 471 542 28,500 -310 Descending Miami Center
Fri 10:23:38 AM 28.8436 -81.8678 170° South 463 533 27,900 -532 Descending Miami Center
Fri 10:24:40 AM 28.7200 -81.8414 169° South 456 525 27,400 -435 Descending Miami Center
Fri 10:25:42 AM 28.5936 -81.8167 170° South 457 526 27,000 -194 Descending Miami Center
Fri 10:26:44 AM 28.4694 -81.7850 167° South 456 525 27,000 -290 Level Miami Center
Fri 10:27:46 AM 28.3356 -81.7461 166° South 456 525 26,400 -774 Descending Miami Center
Fri 10:28:48 AM 28.2122 -81.7106 166° South 457 526 25,400 -1,258 Descending Miami Center
Fri 10:29:50 AM 28.0647 -81.6706 167° South 457 526 23,800 -1,839 Descending Miami Center
Fri 10:30:52 AM 27.9411 -81.6992 192° South 454 522 21,600 -2,081 Descending Miami Center
Fri 10:31:54 AM 27.8142 -81.7358 194° South 453 521 19,500 -1,742 Descending Miami Center
Fri 10:32:56 AM 27.7078 -81.7639 193° South 428 493 18,000 -1,452 Descending Miami Center
Fri 10:33:58 AM 27.5939 -81.7592 178° South 404 465 16,500 -1,016 Descending Miami Center
Fri 10:35:00 AM 27.4928 -81.7147 159° South 389 448 15,900 -823 Descending Miami Center
Fri 10:36:02 AM 27.3764 -81.6594 157° South 381 438 14,800 -1,161 Descending Miami Center
Fri 10:37:04 AM 27.2839 -81.6150 157° South 363 418 13,500 -1,258 Descending Miami Center
Fri 10:38:06 AM 27.1928 -81.5711 157° South 356 410 12,200 -1,258 Descending Miami Center
Fri 10:39:08 AM 27.1047 -81.5289 157° South 344 396 10,900 -1,065 Descending Miami Center
Fri 10:40:10 AM 27.0128 -81.4844 157° South 329 379 10,000 -435 Descending Miami Center
Fri 10:41:12 AM 26.9225 -81.4392 156° South 328 377 10,000  Level Miami Center
Fri 10:42:14 AM 26.8394 -81.3975 156° South 329 379 10,000  Level Miami Center
Fri 10:43:16 AM 26.7436 -81.3886 175° South 329 379 10,000 -48 Level Miami Center
Fri 10:44:18 AM 26.6575 -81.4150 195° South 330 380 9,900 -677 Descending Miami Center
Fri 10:45:20 AM 26.6053 -81.4911 233° Southwest 290 334 8,600 -1,403 Descending Miami Center
Fri 10:46:22 AM 26.5564 -81.5656 234° Southwest 278 320 7,000 -768 Descending Miami Center
Fri 10:47:25 AM 26.5131 -81.6319 234° Southwest 270 311 7,000 -720 Level Miami Center
Fri 10:48:27 AM 26.4681 -81.7011 234° Southwest 276 318 5,500 -1,452 Descending Miami Center
Fri 10:49:29 AM 26.4197 -81.7744 234° Southwest 275 316 4,000 -726 Descending Miami Center
Fri 10:50:31 AM 26.3794 -81.8369 234° Southwest 252 290 4,000 -435 Level Miami Center
Fri 10:51:33 AM 26.3772 -81.9053 268° West 247 284 3,100 -581 Descending Miami Center
Fri 10:52:35 AM 26.4389 -81.9036 North 228 262 2,800 -726 Descending Miami Center
Fri 10:53:37 AM 26.4739 -81.8506 54° Northeast 203 234 1,600 -919 Descending Miami Center
Fri 10:54:39 AM 26.4978 -81.8142 54° Northeast 155 178 900 -677 Descending Miami Center
Fri 10:55:41 AM 26.5219 -81.7769 54° Northeast 142 163 200 -677 Descending Miami Center
Fri 10:57:00 AM 26.5333 -81.7500 24° Northeast  Level FlightAware Approximate

Login

Don't have an account? Register now (free) for customized features, flight alerts, and more!